Time;durP1;ratioP1;P1;durP2;ratioP2;P2;SDS_P1;SDS_P2;PMS_P1;PMS_P2;Temp;Humidity;BMP_temperature;BMP_pressure;BME280_temperature;BME280_humidity;BME280_pressure;Samples;Min_cycle;Max_cycle;Signal;HPM_P1;HPM_P2
2023/05/19 00:01:47;;;;;;;7.95;6.30;;;13.70;99.90;;;;;;4146500;28;20037;-70
2023/05/19 00:03:56;;;;;;;7.53;5.70;;;13.70;99.90;;;;;;4145903;28;20447;-68
2023/05/19 00:06:00;;;;;;;8.20;6.13;;;13.60;99.90;;;;;;4145922;28;20076;-67
2023/05/19 00:08:03;;;;;;;9.27;6.37;;;13.70;99.90;;;;;;4127903;28;20050;-61
2023/05/19 00:10:05;;;;;;;7.63;6.82;;;13.60;99.90;;;;;;4145985;28;20076;-61
2023/05/19 00:12:07;;;;;;;8.95;6.22;;;13.60;99.90;;;;;;4145385;28;20030;-61
2023/05/19 00:14:08;;;;;;;8.00;6.30;;;13.60;99.90;;;;;;4144738;28;20037;-73
2023/05/19 00:16:10;;;;;;;8.38;7.20;;;13.60;99.90;;;;;;4146280;28;20022;-60
2023/05/19 00:18:12;;;;;;;7.13;5.63;;;13.50;99.90;;;;;;4144449;28;20056;-64
2023/05/19 00:20:14;;;;;;;9.95;6.57;;;13.50;99.90;;;;;;4128479;28;20030;-58
2023/05/19 00:22:15;;;;;;;9.65;6.07;;;13.50;99.90;;;;;;4145101;28;20018;-59
2023/05/19 00:24:16;;;;;;;8.77;6.37;;;13.40;99.90;;;;;;4155024;28;20090;-71
2023/05/19 00:26:17;;;;;;;10.35;6.05;;;13.40;99.90;;;;;;4161363;28;20420;-61
2023/05/19 00:28:18;;;;;;;9.77;6.43;;;13.40;99.90;;;;;;4160904;28;20054;-62
2023/05/19 00:30:21;;;;;;;8.50;6.70;;;13.40;99.90;;;;;;4160933;28;20587;-61
2023/05/19 00:32:22;;;;;;;9.27;6.63;;;13.40;99.90;;;;;;4162566;28;20045;-61
2023/05/19 00:34:23;;;;;;;9.50;6.37;;;13.40;99.90;;;;;;4160726;28;20037;-59
2023/05/19 00:36:25;;;;;;;7.47;6.07;;;13.40;99.90;;;;;;4161327;28;20596;-60
2023/05/19 00:38:26;;;;;;;8.90;6.80;;;13.40;99.90;;;;;;4161562;28;20416;-61
2023/05/19 00:40:30;;;;;;;7.50;6.30;;;13.40;99.90;;;;;;4161707;28;20034;-72
2023/05/19 00:42:31;;;;;;;9.87;6.63;;;13.30;99.90;;;;;;4161858;28;20029;-71
2023/05/19 00:44:32;;;;;;;9.40;7.17;;;13.30;99.90;;;;;;4161131;28;20054;-73
2023/05/19 00:46:34;;;;;;;8.47;6.23;;;13.30;99.90;;;;;;4161985;28;20466;-67
2023/05/19 00:48:35;;;;;;;13.50;7.37;;;13.30;99.90;;;;;;4160417;28;20117;-72
2023/05/19 00:50:36;;;;;;;7.63;6.73;;;13.20;99.90;;;;;;4161970;28;20029;-62
2023/05/19 00:52:38;;;;;;;9.13;7.03;;;13.20;99.90;;;;;;4160996;28;20025;-71
2023/05/19 00:54:39;;;;;;;6.97;6.27;;;13.20;99.90;;;;;;4161756;28;20030;-70
2023/05/19 00:56:40;;;;;;;12.00;7.30;;;13.20;99.90;;;;;;4160593;28;20425;-71
2023/05/19 00:58:42;;;;;;;10.63;7.43;;;13.20;99.90;;;;;;4162137;28;20041;-72
2023/05/19 01:00:44;;;;;;;8.57;7.00;;;13.20;99.90;;;;;;4143909;28;20084;-72
2023/05/19 01:02:45;;;;;;;9.87;6.97;;;13.20;99.90;;;;;;4161896;28;20033;-71
2023/05/19 01:04:46;;;;;;;7.90;7.10;;;13.20;99.90;;;;;;4160159;28;20037;-68
2023/05/19 01:06:48;;;;;;;10.27;6.90;;;13.20;99.90;;;;;;4161825;28;20086;-74
2023/05/19 01:08:50;;;;;;;7.47;6.30;;;13.10;99.90;;;;;;4160909;28;20037;-72
2023/05/19 01:10:51;;;;;;;9.43;6.90;;;13.10;99.90;;;;;;4161591;28;20079;-71
2023/05/19 01:12:52;;;;;;;7.70;6.90;;;13.10;99.90;;;;;;4161375;28;20026;-60
2023/05/19 01:14:55;;;;;;;9.77;7.60;;;13.10;99.90;;;;;;4161250;28;20029;-61
2023/05/19 01:17:19;;;;;;;11.03;6.93;;;13.10;99.90;;;;;;4160874;28;20087;-61
2023/05/19 01:19:29;;;;;;;10.60;7.07;;;13.10;99.90;;;;;;4146794;28;20478;-60
2023/05/19 01:21:48;;;;;;;9.60;6.57;;;13.10;99.90;;;;;;4160953;28;20041;-60
2023/05/19 01:24:23;;;;;;;8.87;7.23;;;13.10;99.90;;;;;;4161463;28;20079;-61
2023/05/19 01:27:09;;;;;;;6.90;6.20;;;13.10;99.90;;;;;;4160658;28;20079;-59
2023/05/19 01:29:28;;;;;;;11.40;7.17;;;13.10;99.90;;;;;;4131175;28;20053;-60
2023/05/19 01:31:30;;;;;;;10.33;7.63;;;13.10;99.90;;;;;;4160313;28;20042;-59
2023/05/19 01:33:32;;;;;;;9.17;7.13;;;13.10;99.90;;;;;;4160977;28;20041;-60
2023/05/19 01:35:37;;;;;;;10.70;7.50;;;13.10;99.90;;;;;;4159650;28;20034;-61
2023/05/19 01:37:41;;;;;;;11.80;7.77;;;13.10;99.90;;;;;;4161708;28;20029;-63
2023/05/19 01:39:44;;;;;;;9.77;7.57;;;13.10;99.90;;;;;;4160838;28;20095;-60
2023/05/19 01:41:46;;;;;;;7.40;6.63;;;13.10;99.90;;;;;;4164516;28;20452;-63
2023/05/19 01:43:48;;;;;;;8.97;6.90;;;13.10;99.90;;;;;;4163956;28;20042;-60
2023/05/19 01:45:50;;;;;;;13.67;7.30;;;13.20;99.90;;;;;;4165040;28;20422;-68
2023/05/19 01:47:54;;;;;;;9.90;7.37;;;13.10;99.90;;;;;;4163055;28;20047;-62
2023/05/19 01:49:55;;;;;;;9.63;6.83;;;13.10;99.90;;;;;;4164139;28;20042;-60
2023/05/19 01:51:56;;;;;;;12.03;7.73;;;13.10;99.90;;;;;;4163336;28;20539;-60
2023/05/19 01:53:58;;;;;;;11.23;7.67;;;13.10;99.90;;;;;;4164374;28;20140;-60
2023/05/19 01:55:59;;;;;;;11.23;7.73;;;13.10;99.90;;;;;;4164008;28;20566;-60
2023/05/19 01:58:28;;;;;;;9.30;6.80;;;13.10;99.90;;;;;;4163901;28;20099;-61
2023/05/19 02:00:32;;;;;;;8.27;7.20;;;13.10;99.90;;;;;;4164102;28;20037;-59
2023/05/19 02:03:05;;;;;;;9.83;6.97;;;13.10;99.90;;;;;;4164058;28;20037;-59
2023/05/19 02:05:17;;;;;;;8.30;6.93;;;13.10;99.90;;;;;;4163763;28;20021;-59
2023/05/19 02:07:24;;;;;;;8.90;7.00;;;13.10;99.90;;;;;;4163727;28;20111;-57
2023/05/19 02:09:31;;;;;;;9.20;6.23;;;13.10;99.90;;;;;;4163682;28;20531;-60
2023/05/19 02:11:36;;;;;;;8.67;7.20;;;13.10;99.90;;;;;;4164081;28;20079;-61
2023/05/19 02:13:42;;;;;;;12.13;7.63;;;13.10;99.90;;;;;;4163889;28;20014;-70
2023/05/19 02:15:44;;;;;;;8.23;6.57;;;13.10;99.90;;;;;;4163249;28;20099;-61
2023/05/19 02:17:49;;;;;;;9.20;7.13;;;13.10;99.90;;;;;;4163811;28;20407;-61
2023/05/19 02:19:50;;;;;;;7.63;6.70;;;13.10;99.90;;;;;;4163919;28;21042;-61
2023/05/19 02:21:51;;;;;;;9.10;6.87;;;13.10;99.90;;;;;;4163414;28;20045;-60
2023/05/19 02:23:52;;;;;;;8.73;7.03;;;13.10;99.90;;;;;;4163250;28;20021;-61
2023/05/19 02:25:54;;;;;;;7.23;6.27;;;13.10;99.90;;;;;;4164322;28;20444;-61
2023/05/19 02:27:57;;;;;;;10.30;8.10;;;13.10;99.90;;;;;;4163064;28;20461;-56
2023/05/19 02:29:58;;;;;;;9.17;7.17;;;13.10;99.90;;;;;;4163556;28;20038;-61
2023/05/19 02:32:00;;;;;;;9.27;7.07;;;13.10;99.90;;;;;;4145548;28;20293;-62
2023/05/19 02:34:01;;;;;;;10.83;7.53;;;13.10;99.90;;;;;;4164321;28;20136;-61
2023/05/19 02:36:03;;;;;;;9.20;7.40;;;13.10;99.90;;;;;;4162189;28;20030;-59
2023/05/19 02:38:04;;;;;;;11.63;8.00;;;13.10;99.90;;;;;;4163709;28;20042;-61
2023/05/19 02:40:06;;;;;;;10.03;7.17;;;13.10;99.90;;;;;;4162367;28;20055;-61
2023/05/19 02:42:07;;;;;;;8.87;7.33;;;13.10;99.90;;;;;;4164160;28;20123;-61
2023/05/19 02:44:08;;;;;;;9.57;7.40;;;13.10;99.90;;;;;;4163061;28;20107;-60
2023/05/19 02:46:09;;;;;;;10.40;7.50;;;13.10;99.90;;;;;;4163922;28;20041;-70
2023/05/19 02:48:11;;;;;;;10.77;7.40;;;13.10;99.90;;;;;;4163090;28;20398;-71
2023/05/19 02:50:12;;;;;;;10.73;7.80;;;13.10;99.90;;;;;;4163562;28;20454;-60
2023/05/19 02:52:13;;;;;;;9.53;7.20;;;13.10;99.90;;;;;;4161946;28;20033;-64
2023/05/19 02:54:14;;;;;;;9.50;7.87;;;13.10;99.90;;;;;;4161980;28;20038;-68
2023/05/19 02:56:15;;;;;;;11.03;7.83;;;13.10;99.90;;;;;;4163184;28;20053;-61
2023/05/19 02:58:17;;;;;;;9.07;7.27;;;13.10;99.90;;;;;;4162947;28;20440;-60
2023/05/19 03:00:18;;;;;;;13.77;7.90;;;13.10;99.90;;;;;;4164135;28;20363;-61
2023/05/19 03:02:20;;;;;;;8.67;7.40;;;13.10;99.90;;;;;;4162590;28;20559;-61
2023/05/19 03:04:21;;;;;;;9.40;7.83;;;13.10;99.90;;;;;;4163361;28;20445;-60
2023/05/19 03:06:23;;;;;;;11.70;7.97;;;13.10;99.90;;;;;;4162487;28;20092;-61
2023/05/19 03:08:24;;;;;;;11.47;8.30;;;13.10;99.90;;;;;;4163764;28;20980;-60
2023/05/19 03:10:25;;;;;;;10.03;7.43;;;13.10;99.90;;;;;;4162593;28;20071;-62
2023/05/19 03:12:26;;;;;;;11.20;7.93;;;13.10;99.90;;;;;;4145542;28;20636;-60
2023/05/19 03:14:27;;;;;;;12.20;7.10;;;13.10;99.90;;;;;;4162264;28;20540;-60
2023/05/19 03:16:28;;;;;;;8.23;6.83;;;13.10;99.90;;;;;;4163377;28;20098;-61
2023/05/19 03:18:29;;;;;;;10.47;7.70;;;13.10;99.90;;;;;;4162612;28;20088;-60
2023/05/19 03:20:30;;;;;;;9.77;7.17;;;13.10;99.90;;;;;;4161966;28;20079;-60
2023/05/19 03:22:32;;;;;;;8.87;6.80;;;13.10;99.90;;;;;;4162242;28;20079;-60
2023/05/19 03:24:33;;;;;;;11.23;7.33;;;13.10;99.90;;;;;;4162609;28;20025;-61
2023/05/19 03:26:34;;;;;;;10.97;7.13;;;13.00;99.90;;;;;;4163161;28;20087;-61
2023/05/19 03:28:35;;;;;;;9.17;7.03;;;13.10;99.90;;;;;;4162255;28;20037;-61
2023/05/19 03:30:36;;;;;;;9.70;6.53;;;13.10;99.90;;;;;;4163601;28;20033;-60
2023/05/19 03:32:37;;;;;;;11.93;7.87;;;13.20;99.90;;;;;;4162346;28;20029;-61
2023/05/19 03:34:38;;;;;;;7.97;7.13;;;13.30;99.90;;;;;;4162280;28;20061;-60
2023/05/19 03:36:40;;;;;;;8.73;6.87;;;13.40;99.90;;;;;;4162094;28;20091;-61
2023/05/19 03:38:41;;;;;;;9.77;7.20;;;13.40;99.90;;;;;;4162369;28;20095;-60
2023/05/19 03:40:42;;;;;;;9.73;7.80;;;13.50;99.90;;;;;;4143953;28;20038;-60
2023/05/19 03:42:44;;;;;;;10.33;7.57;;;13.50;99.90;;;;;;4162905;28;20095;-62
2023/05/19 03:44:45;;;;;;;9.17;6.90;;;13.60;99.90;;;;;;4161312;28;20042;-66
2023/05/19 03:46:46;;;;;;;9.07;7.50;;;13.60;99.90;;;;;;4162898;28;20029;-69
2023/05/19 03:48:47;;;;;;;8.57;7.20;;;13.60;99.90;;;;;;4162073;28;20030;-70
2023/05/19 03:50:48;;;;;;;8.80;7.00;;;13.70;99.90;;;;;;4162457;28;20022;-70
2023/05/19 03:52:50;;;;;;;10.00;7.17;;;13.70;99.90;;;;;;4161633;28;20482;-72
2023/05/19 03:54:51;;;;;;;8.95;7.22;;;13.70;99.90;;;;;;4162104;28;20037;-72
2023/05/19 03:56:52;;;;;;;10.57;7.43;;;13.70;99.90;;;;;;4162633;28;20034;-71
2023/05/19 03:58:54;;;;;;;10.57;7.20;;;13.70;99.90;;;;;;4143787;28;20076;-72
2023/05/19 04:00:55;;;;;;;9.23;6.85;;;13.80;99.90;;;;;;4162962;28;20119;-70
2023/05/19 04:02:56;;;;;;;11.57;6.90;;;13.80;99.90;;;;;;4160933;28;20033;-66
2023/05/19 04:04:57;;;;;;;11.87;7.77;;;13.80;99.90;;;;;;4161511;28;20068;-69
2023/05/19 04:06:58;;;;;;;10.65;7.32;;;13.80;99.90;;;;;;4161150;28;20684;-70
2023/05/19 04:09:01;;;;;;;9.65;6.95;;;13.80;99.90;;;;;;4162434;28;20045;-73
2023/05/19 04:11:02;;;;;;;11.10;8.20;;;13.80;99.90;;;;;;4161214;28;20477;-73
2023/05/19 04:13:03;;;;;;;34.25;15.02;;;13.80;99.90;;;;;;4162355;28;20432;-69
2023/05/19 04:15:05;;;;;;;10.10;7.70;;;13.80;99.90;;;;;;4160653;28;20037;-67
2023/05/19 04:17:07;;;;;;;11.07;7.45;;;13.80;99.90;;;;;;4162314;28;20075;-69
2023/05/19 04:19:08;;;;;;;12.18;7.63;;;14.00;99.90;;;;;;4160408;28;20033;-66
2023/05/19 04:21:09;;;;;;;10.35;7.90;;;14.10;99.90;;;;;;4161987;28;20041;-73
2023/05/19 04:23:10;;;;;;;9.83;7.70;;;14.10;99.90;;;;;;4162327;28;20029;-67
2023/05/19 04:25:12;;;;;;;12.48;7.35;;;14.20;99.90;;;;;;4161921;28;20026;-78
2023/05/19 04:27:15;;;;;;;9.70;7.23;;;14.20;99.90;;;;;;4161962;28;20025;-65
2023/05/19 04:29:16;;;;;;;8.73;6.85;;;14.30;99.90;;;;;;4160003;28;20072;-65
2023/05/19 04:31:20;;;;;;;8.80;7.25;;;14.60;99.90;;;;;;4160167;28;20103;-57
2023/05/19 04:33:21;;;;;;;9.43;6.82;;;15.00;99.90;;;;;;4145288;28;20033;-66
2023/05/19 04:35:22;;;;;;;10.18;6.82;;;15.40;99.90;;;;;;4145671;28;20034;-74
2023/05/19 04:37:24;;;;;;;9.13;7.15;;;15.70;99.90;;;;;;4144077;28;20573;-63
2023/05/19 04:39:25;;;;;;;7.90;6.40;;;16.00;99.90;;;;;;4145062;28;20087;-60
2023/05/19 04:41:27;;;;;;;9.10;6.47;;;16.40;99.90;;;;;;4144134;28;20080;-67
2023/05/19 04:43:28;;;;;;;10.05;6.30;;;16.70;99.90;;;;;;4145038;28;20042;-63
2023/05/19 04:45:31;;;;;;;6.78;6.03;;;17.20;99.90;;;;;;4143939;28;20037;-62
2023/05/19 04:47:35;;;;;;;7.50;6.53;;;17.70;99.90;;;;;;4145596;28;20045;-65
2023/05/19 04:49:39;;;;;;;7.97;6.22;;;17.90;99.90;;;;;;4156939;28;20095;-62
2023/05/19 04:51:41;;;;;;;6.00;5.40;;;18.40;99.90;;;;;;4162927;28;20037;-67
2023/05/19 04:53:42;;;;;;;12.18;5.00;;;18.70;99.90;;;;;;4160506;28;20033;-72
2023/05/19 04:55:44;;;;;;;10.65;5.28;;;18.70;99.90;;;;;;4160480;28;20092;-64
2023/05/19 04:57:45;;;;;;;8.80;4.93;;;18.70;99.90;;;;;;4161201;28;20052;-74
2023/05/19 04:59:46;;;;;;;6.97;4.53;;;18.90;99.90;;;;;;4161091;28;20021;-74
2023/05/19 05:01:47;;;;;;;8.60;5.57;;;19.10;99.90;;;;;;4161076;28;20895;-71
2023/05/19 05:03:48;;;;;;;8.60;4.93;;;19.40;99.90;;;;;;4160198;28;20107;-67
2023/05/19 05:05:50;;;;;;;5.32;4.45;;;19.70;99.90;;;;;;4161368;28;20087;-74
2023/05/19 05:07:52;;;;;;;6.30;4.32;;;20.00;99.90;;;;;;4160082;28;20052;-76
2023/05/19 05:09:54;;;;;;;7.28;4.38;;;;;;;;;;4161952;28;20083;-72
2023/05/19 05:11:56;;;;;;;7.40;4.30;;;;;;;;;;4160482;28;20029;-61
2023/05/19 05:13:57;;;;;;;5.20;4.10;;;;;;;;;;4161744;28;20033;-71
2023/05/19 05:15:59;;;;;;;4.40;3.85;;;;;;;;;;4160099;28;20022;-71
2023/05/19 05:18:00;;;;;;;9.18;4.65;;;;;;;;;;4161394;28;20033;-70
2023/05/19 05:20:04;;;;;;;7.50;4.13;;;;;;;;;;4160296;28;20059;-74
2023/05/19 05:22:06;;;;;;;6.22;3.55;;;20.60;99.90;;;;;;4160291;28;20506;-65
2023/05/19 05:24:08;;;;;;;4.50;4.10;;;21.40;99.90;;;;;;4160262;28;20026;-69
2023/05/19 05:26:18;;;;;;;6.07;4.32;;;21.70;99.90;;;;;;4161061;28;20045;-68
2023/05/19 05:28:20;;;;;;;4.22;3.83;;;;;;;;;;4160697;28;20541;-61
2023/05/19 05:30:21;;;;;;;5.78;3.70;;;;;;;;;;4159973;28;20049;-72
2023/05/19 05:32:23;;;;;;;4.80;3.70;;;;;;;;;;4160458;28;20186;-64
2023/05/19 05:34:24;;;;;;;7.93;3.70;;;;;;;;;;4160560;28;20433;-69
2023/05/19 05:36:27;;;;;;;6.85;3.83;;;;;;;;;;4161094;28;20054;-69
2023/05/19 05:38:28;;;;;;;3.65;3.33;;;;;;;;;;4160274;28;20075;-71
2023/05/19 05:40:30;;;;;;;5.45;3.85;;;;;;;;;;4160712;28;20037;-66
2023/05/19 05:42:31;;;;;;;5.15;4.03;;;;;;;;;;4160322;28;20026;-76
2023/05/19 05:44:34;;;;;;;4.72;3.85;;;21.70;99.90;;;;;;4161322;28;20029;-74
2023/05/19 05:46:35;;;;;;;5.07;3.92;;;21.00;99.90;;;;;;4160296;28;20076;-68
2023/05/19 05:48:37;;;;;;;4.13;3.75;;;20.50;99.90;;;;;;4160949;28;20480;-71
2023/05/19 05:50:38;;;;;;;5.20;4.07;;;20.50;99.90;;;;;;4160072;28;20033;-72
2023/05/19 05:52:40;;;;;;;4.82;4.10;;;20.60;99.90;;;;;;4161262;28;20412;-72
2023/05/19 05:54:42;;;;;;;6.05;4.20;;;20.90;99.90;;;;;;4159958;28;20048;-64
2023/05/19 05:56:43;;;;;;;6.00;4.43;;;21.30;99.90;;;;;;4161236;28;20363;-74
2023/05/19 05:58:44;;;;;;;4.28;3.85;;;21.60;99.90;;;;;;4159857;28;20033;-61
2023/05/19 06:00:48;;;;;;;7.72;4.35;;;21.60;99.90;;;;;;4160174;28;20096;-61
2023/05/19 06:02:50;;;;;;;7.07;4.13;;;21.80;99.90;;;;;;4160394;28;20059;-67
2023/05/19 06:04:52;;;;;;;5.63;4.13;;;22.10;99.90;;;;;;4160034;28;20087;-64
2023/05/19 06:06:59;;;;;;;6.72;3.78;;;;;;;;;;4160571;28;20025;-76
2023/05/19 06:09:01;;;;;;;6.68;4.72;;;;;;;;;;4160324;28;20037;-73
2023/05/19 06:11:08;;;;;;;5.63;4.10;;;;;;;;;;4161144;28;20099;-74
2023/05/19 06:13:09;;;;;;;7.95;4.30;;;;;;;;;;4159547;28;20103;-76
2023/05/19 06:15:10;;;;;;;8.48;4.32;;;;;;;;;;4160245;28;20080;-72
2023/05/19 06:17:12;;;;;;;6.78;4.60;;;;;;;;;;4159865;28;20029;-71
2023/05/19 06:19:13;;;;;;;7.85;5.22;;;;;;;;;;4161252;28;20026;-75
2023/05/19 06:21:16;;;;;;;8.52;4.57;;;;;;;;;;4158867;28;20041;-67
2023/05/19 06:23:17;;;;;;;7.93;4.40;;;;;;;;;;4161102;28;20037;-74
2023/05/19 06:25:19;;;;;;;7.25;4.45;;;;;;;;;;4158801;28;20025;-70
2023/05/19 06:27:20;;;;;;;4.40;3.30;;;;;;;;;;4162281;28;20034;-65
2023/05/19 06:29:22;;;;;;;7.43;3.85;;;;;;;;;;4162127;28;20080;-75
2023/05/19 06:31:25;;;;;;;11.63;3.85;;;;;;;;;;4163524;28;20041;-76
2023/05/19 06:33:26;;;;;;;5.18;3.05;;;;;;;;;;4162198;28;20115;-72
2023/05/19 06:35:27;;;;;;;3.42;2.92;;;;;;;;;;4162842;28;20037;-66
2023/05/19 06:37:29;;;;;;;3.20;2.90;;;;;;;;;;4163111;28;20026;-72
2023/05/19 06:39:30;;;;;;;4.78;2.72;;;;;;;;;;4162751;28;20099;-70
2023/05/19 06:41:33;;;;;;;6.78;2.92;;;;;;;;;;4162789;28;20076;-68
2023/05/19 06:43:34;;;;;;;3.95;3.17;;;;;;;;;;4162851;28;20373;-59
2023/05/19 06:45:36;;;;;;;5.53;3.05;;;;;;;;;;4163686;28;20033;-71
2023/05/19 06:47:39;;;;;;;6.43;3.60;;;;;;;;;;4162651;28;20025;-71
2023/05/19 06:49:41;;;;;;;6.78;3.50;;;;;;;;;;4163945;28;20371;-66
2023/05/19 06:51:43;;;;;;;7.22;4.05;;;;;;;;;;4161770;28;20030;-69
2023/05/19 06:53:44;;;;;;;3.85;3.42;;;;;;;;;;4163007;28;20042;-70
2023/05/19 06:55:48;;;;;;;4.20;3.08;;;22.10;99.90;;;;;;4162412;28;20459;-70
2023/05/19 06:57:50;;;;;;;6.47;3.80;;;23.30;99.90;;;;;;4163682;28;20025;-70
2023/05/19 06:59:51;;;;;;;9.05;3.78;;;23.80;99.90;;;;;;4161731;28;20045;-65
2023/05/19 07:01:52;;;;;;;5.55;3.30;;;23.50;99.90;;;;;;4163427;28;20100;-64
2023/05/19 07:03:53;;;;;;;6.60;4.32;;;;;;;;;;4162563;28;20095;-61
2023/05/19 07:05:55;;;;;;;6.10;4.13;;;23.00;99.90;;;;;;4163331;28;20104;-61
2023/05/19 07:07:56;;;;;;;10.52;4.35;;;22.20;99.90;;;;;;4144449;28;20038;-60
2023/05/19 07:09:57;;;;;;;8.40;5.05;;;21.80;99.90;;;;;;4163180;28;20092;-60
2023/05/19 07:11:58;;;;;;;10.02;5.70;;;21.50;99.90;;;;;;4162875;28;20076;-61
2023/05/19 07:13:59;;;;;;;11.68;5.57;;;21.30;99.90;;;;;;4162178;28;20116;-62
2023/05/19 07:16:00;;;;;;;10.55;5.35;;;21.50;99.90;;;;;;4162857;28;20095;-59
2023/05/19 07:18:02;;;;;;;9.02;5.80;;;21.40;99.90;;;;;;4162318;28;20087;-77
2023/05/19 07:20:05;;;;;;;7.47;5.47;;;21.10;99.90;;;;;;4162525;28;20045;-72
2023/05/19 07:22:06;;;;;;;10.07;6.25;;;20.90;99.90;;;;;;4161997;28;20127;-60
2023/05/19 07:24:07;;;;;;;9.27;6.03;;;20.60;99.90;;;;;;4162708;28;20041;-67
2023/05/19 07:26:09;;;;;;;10.70;7.05;;;20.30;99.90;;;;;;4161977;28;20042;-72
2023/05/19 07:28:10;;;;;;;11.50;6.85;;;20.30;99.90;;;;;;4163239;28;20022;-60
2023/05/19 07:30:11;;;;;;;9.70;6.20;;;20.10;99.90;;;;;;4161426;28;20049;-66
2023/05/19 07:32:12;;;;;;;14.75;7.15;;;20.00;99.90;;;;;;4163479;28;20075;-59
2023/05/19 07:34:13;;;;;;;12.38;6.13;;;20.00;99.90;;;;;;4161233;28;20042;-75
2023/05/19 07:36:15;;;;;;;7.20;5.60;;;20.00;99.90;;;;;;4162164;28;20030;-70
2023/05/19 07:38:16;;;;;;;8.25;5.82;;;20.10;99.90;;;;;;4160909;28;20033;-74
2023/05/19 07:40:17;;;;;;;9.95;5.85;;;20.20;99.90;;;;;;4162622;28;20171;-61
2023/05/19 07:42:18;;;;;;;7.57;5.35;;;20.20;99.90;;;;;;4162036;28;20076;-69
2023/05/19 07:44:19;;;;;;;8.07;6.10;;;20.40;99.90;;;;;;4162436;28;20076;-62
2023/05/19 07:46:21;;;;;;;8.35;5.60;;;20.60;99.90;;;;;;4162356;28;20364;-61
2023/05/19 07:48:24;;;;;;;10.00;5.90;;;20.40;99.90;;;;;;4161900;28;20493;-75
2023/05/19 07:50:25;;;;;;;6.93;5.05;;;20.40;99.90;;;;;;4162526;28;20052;-61
2023/05/19 07:52:26;;;;;;;9.52;5.57;;;20.40;99.90;;;;;;4161620;28;20037;-74
2023/05/19 07:54:27;;;;;;;13.02;7.13;;;20.40;99.90;;;;;;4161949;28;20033;-73
2023/05/19 07:56:29;;;;;;;9.48;5.53;;;20.40;99.90;;;;;;4161507;28;20461;-63
2023/05/19 07:58:30;;;;;;;11.25;6.15;;;20.30;99.90;;;;;;4162375;28;20100;-72
2023/05/19 08:00:31;;;;;;;8.10;5.15;;;20.50;99.90;;;;;;4160556;28;20061;-60
2023/05/19 08:02:32;;;;;;;6.95;4.65;;;20.80;99.90;;;;;;4163044;28;20091;-70
2023/05/19 08:04:33;;;;;;;7.38;4.78;;;21.40;99.90;;;;;;4161463;28;20021;-71
2023/05/19 08:06:35;;;;;;;7.95;5.45;;;22.10;99.90;;;;;;4162606;28;20029;-65
2023/05/19 08:08:36;;;;;;;7.07;4.47;;;22.20;99.90;;;;;;4160727;28;20038;-60
2023/05/19 08:10:37;;;;;;;7.60;4.88;;;22.20;99.90;;;;;;4162188;28;20068;-60
2023/05/19 08:12:38;;;;;;;7.80;4.88;;;22.20;99.90;;;;;;4160942;28;20050;-61
2023/05/19 08:14:39;;;;;;;7.18;5.03;;;21.90;99.90;;;;;;4161788;28;20052;-76
2023/05/19 08:16:41;;;;;;;13.77;5.60;;;21.80;99.90;;;;;;4161945;28;20037;-63
2023/05/19 08:18:42;;;;;;;6.43;4.50;;;21.90;99.90;;;;;;4161576;28;20144;-64
2023/05/19 08:20:45;;;;;;;7.00;4.50;;;22.00;99.90;;;;;;4161400;28;20049;-66
2023/05/19 08:22:46;;;;;;;5.97;4.72;;;21.90;99.90;;;;;;4161216;28;20412;-71
2023/05/19 08:24:48;;;;;;;5.00;3.78;;;21.80;99.90;;;;;;4161818;28;20422;-60
2023/05/19 08:26:50;;;;;;;5.72;4.85;;;21.90;99.90;;;;;;4160948;28;20048;-73
2023/05/19 08:28:51;;;;;;;7.43;4.18;;;22.20;99.90;;;;;;4161833;28;20425;-71
2023/05/19 08:30:52;;;;;;;3.97;3.65;;;22.20;99.90;;;;;;4160646;28;20084;-64
2023/05/19 08:32:53;;;;;;;3.60;3.25;;;22.20;99.90;;;;;;4162282;28;20037;-69
2023/05/19 08:34:54;;;;;;;7.00;4.30;;;22.30;99.90;;;;;;4159729;28;20038;-63
2023/05/19 08:36:56;;;;;;;7.65;4.00;;;22.20;99.90;;;;;;4143275;28;20046;-64
2023/05/19 08:38:57;;;;;;;6.32;4.38;;;22.10;99.90;;;;;;4142670;28;20104;-72
2023/05/19 08:40:58;;;;;;;7.90;4.78;;;22.20;99.90;;;;;;4161090;28;20045;-70
2023/05/19 08:42:59;;;;;;;6.82;4.32;;;22.20;99.90;;;;;;4160996;28;20428;-70
2023/05/19 08:45:01;;;;;;;5.43;3.92;;;21.80;99.90;;;;;;4161366;28;20034;-73
2023/05/19 08:47:04;;;;;;;6.72;5.07;;;21.60;99.90;;;;;;4160592;28;20441;-65
2023/05/19 08:49:12;;;;;;;5.00;4.13;;;21.50;99.90;;;;;;4160722;28;20033;-68
2023/05/19 08:51:38;;;;;;;7.00;4.43;;;21.60;99.90;;;;;;4160594;28;20087;-73
2023/05/19 08:53:44;;;;;;;4.55;3.88;;;21.40;99.90;;;;;;4159730;28;20445;-74
2023/05/19 08:55:53;;;;;;;5.80;4.45;;;21.20;99.90;;;;;;4161161;28;20052;-76
2023/05/19 08:57:55;;;;;;;6.00;4.47;;;20.90;99.90;;;;;;4161205;28;20037;-78
2023/05/19 08:59:57;;;;;;;8.68;4.68;;;21.10;99.90;;;;;;4161189;28;20099;-76
2023/05/19 09:01:58;;;;;;;8.90;4.35;;;21.20;99.90;;;;;;4160507;28;20033;-66
2023/05/19 09:04:00;;;;;;;5.15;4.38;;;21.30;99.90;;;;;;4159173;28;20100;-74
2023/05/19 09:06:01;;;;;;;7.07;4.82;;;21.40;99.90;;;;;;4159611;28;20045;-72
2023/05/19 09:08:03;;;;;;;7.95;4.90;;;21.40;99.90;;;;;;4161254;28;20037;-59
2023/05/19 09:10:07;;;;;;;6.13;4.45;;;21.60;99.90;;;;;;4142319;28;20135;-60
2023/05/19 09:12:12;;;;;;;6.50;4.43;;;21.70;99.90;;;;;;4160680;28;20037;-60
2023/05/19 09:14:13;;;;;;;11.45;3.95;;;21.70;99.90;;;;;;4160110;28;20056;-61
2023/05/19 09:16:15;;;;;;;7.15;4.03;;;21.70;99.90;;;;;;4160943;28;20456;-75
2023/05/19 09:18:16;;;;;;;5.05;4.18;;;22.00;99.90;;;;;;4159561;28;20091;-75
2023/05/19 09:20:17;;;;;;;5.32;4.03;;;22.30;99.90;;;;;;4161339;28;20021;-67
2023/05/19 09:22:19;;;;;;;7.47;4.85;;;22.40;99.90;;;;;;4160104;28;20030;-75
2023/05/19 09:24:25;;;;;;;8.93;4.05;;;22.30;99.90;;;;;;4161397;28;20425;-60
2023/05/19 09:26:38;;;;;;;8.25;4.65;;;22.40;99.90;;;;;;4160424;28;20527;-72
2023/05/19 09:28:40;;;;;;;6.60;4.13;;;22.30;99.90;;;;;;4160715;28;20037;-61
2023/05/19 09:30:41;;;;;;;6.07;4.10;;;22.00;99.90;;;;;;4159658;28;20504;-73
2023/05/19 09:32:43;;;;;;;6.68;4.18;;;22.00;99.90;;;;;;4160498;28;20452;-74
2023/05/19 09:34:46;;;;;;;4.78;4.13;;;22.00;99.90;;;;;;4159273;28;20424;-60
2023/05/19 09:36:53;;;;;;;4.68;4.15;;;22.00;99.90;;;;;;4160679;28;20083;-77
2023/05/19 09:38:54;;;;;;;8.88;4.40;;;22.00;99.90;;;;;;4160075;28;20048;-77
2023/05/19 09:40:57;;;;;;;7.15;4.10;;;22.00;99.90;;;;;;4160356;28;20429;-72
2023/05/19 09:42:58;;;;;;;7.72;4.70;;;22.00;99.90;;;;;;4160629;28;20049;-61
2023/05/19 09:45:01;;;;;;;8.75;4.40;;;22.10;99.90;;;;;;4160325;28;20044;-73
2023/05/19 09:47:02;;;;;;;6.00;3.67;;;22.20;99.90;;;;;;4160566;28;20037;-61
2023/05/19 09:49:09;;;;;;;6.18;4.30;;;22.20;99.90;;;;;;4159129;28;20041;-59
2023/05/19 09:51:11;;;;;;;6.03;4.22;;;22.20;99.90;;;;;;4161211;28;20100;-78
2023/05/19 09:53:14;;;;;;;5.82;3.75;;;22.30;99.90;;;;;;4160047;28;20022;-74
2023/05/19 09:55:15;;;;;;;4.65;3.65;;;22.50;99.90;;;;;;4160984;28;20018;-76
2023/05/19 09:57:16;;;;;;;10.07;5.00;;;22.60;99.90;;;;;;4159366;28;20485;-73
2023/05/19 09:59:18;;;;;;;6.80;4.10;;;22.60;99.90;;;;;;4161152;28;20038;-69
2023/05/19 10:01:21;;;;;;;4.97;3.92;;;22.60;99.90;;;;;;4161320;28;20519;-72
2023/05/19 10:03:24;;;;;;;10.18;4.10;;;22.70;99.90;;;;;;4164813;28;20068;-71
2023/05/19 10:05:26;;;;;;;8.23;4.22;;;22.90;99.90;;;;;;4162217;28;20025;-75
2023/05/19 10:07:28;;;;;;;5.68;3.63;;;23.00;99.90;;;;;;4164169;28;20029;-77
2023/05/19 10:09:29;;;;;;;4.60;4.15;;;23.20;99.90;;;;;;4162386;28;20038;-72
2023/05/19 10:11:31;;;;;;;6.55;4.28;;;23.30;99.30;;;;;;4163395;28;20119;-75
2023/05/19 10:13:36;;;;;;;5.80;3.75;;;23.50;99.00;;;;;;4163288;28;20037;-75
2023/05/19 10:15:39;;;;;;;5.65;3.72;;;23.70;98.10;;;;;;4162910;28;20029;-73
2023/05/19 10:17:41;;;;;;;4.35;3.95;;;23.80;97.10;;;;;;4163966;28;20400;-77
2023/05/19 10:19:43;;;;;;;6.80;3.88;;;23.90;96.40;;;;;;4162599;28;20042;-73
2023/05/19 10:21:45;;;;;;;5.82;3.78;;;24.00;95.80;;;;;;4163095;28;20049;-73
2023/05/19 10:23:46;;;;;;;5.75;3.97;;;24.00;95.10;;;;;;4162311;28;20497;-76
2023/05/19 10:25:49;;;;;;;5.05;3.80;;;24.00;95.00;;;;;;4163966;28;20037;-76
2023/05/19 10:28:00;;;;;;;9.65;3.95;;;23.90;95.00;;;;;;4161878;28;20480;-73
2023/05/19 10:30:08;;;;;;;5.82;3.92;;;23.90;94.90;;;;;;4163285;28;20119;-67
2023/05/19 10:32:22;;;;;;;5.95;4.32;;;24.10;94.50;;;;;;4162460;28;20045;-60
2023/05/19 10:34:55;;;;;;;8.98;4.45;;;24.20;93.40;;;;;;4163765;28;20478;-60
2023/05/19 10:37:30;;;;;;;8.13;3.88;;;24.20;93.30;;;;;;4162516;28;20419;-61
2023/05/19 10:39:35;;;;;;;8.07;4.38;;;24.20;92.90;;;;;;4162226;28;20033;-62
2023/05/19 10:42:00;;;;;;;13.18;6.00;;;24.30;93.50;;;;;;4162898;28;20056;-60
2023/05/19 10:44:13;;;;;;;5.90;4.10;;;24.50;92.80;;;;;;4162066;28;20559;-62
2023/05/19 10:46:15;;;;;;;6.50;4.35;;;24.30;92.30;;;;;;4163006;28;20494;-62
2023/05/19 10:48:18;;;;;;;4.43;4.00;;;24.30;93.10;;;;;;4162602;28;20033;-66
2023/05/19 10:50:19;;;;;;;8.07;4.88;;;24.20;92.70;;;;;;4162173;28;20049;-71